METAR EVRA 271750Z 18005KT 5000 BR BKN002 OVC013 04/03 Q1009 R18/290195 NOSIG =

Controllers Online

PositionControllerOnline
No controllers currently online

Booked ATC Today

* Times are UTC

The time is now

UTC: 

Local: 

Latvia vACC on twitter